THY1233 LTFM-EDDB
Flight info
| Callsign | THY1233 |
|---|---|
| Flight time | N/A |
| Altitude | 38000 |
| Route | TUDBU1D/35L TUDBU Q26 ETUBA DCT EVRIK DCT LITKU DCT ROMIS DCT BEFRE T204 NUKRO NUKRO1R |
| Aircraft | B738/M-SDE2E3FGHIRWXY/LB1 |
Departure
| Time | 2026-05-05 17:10 |
|---|---|
| Airport | İstanbul Airport (LTFM) |
Arrival
| Time | N/A |
|---|---|
| Airport | Berlin Brandenburg Airport (EDDB) |
| Time | Latitude | Longitude | Altitude | Speed | Heading |
|---|---|---|---|---|---|
| 2026-05-05 16:58 | 41.26555 | 28.73462 | 176 ft | 0 kts | 71° |
| 2026-05-05 17:03 | 41.26553 | 28.73453 | 175 ft | 2 kts | 71° |
| 2026-05-05 17:03 | 41.26548 | 28.73433 | 175 ft | 2 kts | 71° |
| 2026-05-05 17:04 | 41.26542 | 28.73413 | 175 ft | 2 kts | 71° |
| 2026-05-05 17:04 | 41.26537 | 28.73392 | 175 ft | 2 kts | 71° |
| 2026-05-05 17:04 | 41.26527 | 28.73379 | 175 ft | 2 kts | 335° |
| 2026-05-05 17:04 | 41.26525 | 28.73380 | 175 ft | 0 kts | 335° |
| 2026-05-05 17:05 | 41.26534 | 28.73375 | 175 ft | 4 kts | 335° |
| 2026-05-05 17:06 | 41.26574 | 28.73354 | 175 ft | 9 kts | 340° |
| 2026-05-05 17:06 | 41.26650 | 28.73336 | 175 ft | 13 kts | 357° |
| 2026-05-05 17:06 | 41.26711 | 28.73255 | 175 ft | 16 kts | 268° |
| 2026-05-05 17:06 | 41.26709 | 28.73112 | 175 ft | 11 kts | 269° |
| 2026-05-05 17:07 | 41.26708 | 28.73015 | 175 ft | 10 kts | 269° |
| 2026-05-05 17:07 | 41.26707 | 28.72971 | 175 ft | 0 kts | 269° |
| 2026-05-05 17:08 | 41.26707 | 28.72944 | 175 ft | 8 kts | 269° |
| 2026-05-05 17:08 | 41.26706 | 28.72816 | 176 ft | 19 kts | 269° |
| 2026-05-05 17:08 | 41.26704 | 28.72625 | 178 ft | 16 kts | 269° |
| 2026-05-05 17:09 | 41.26739 | 28.72518 | 177 ft | 13 kts | 340° |
| 2026-05-05 17:09 | 41.26762 | 28.72514 | 177 ft | 0 kts | 359° |
| 2026-05-05 17:09 | 41.26804 | 28.72513 | 177 ft | 29 kts | 359° |
| 2026-05-05 17:09 | 41.27256 | 28.72504 | 173 ft | 99 kts | 359° |
| 2026-05-05 17:10 | 41.28154 | 28.72487 | 179 ft | 156 kts | 359° |
| 2026-05-05 17:10 | 41.29338 | 28.72468 | 623 ft | 175 kts | 359° |
| 2026-05-05 17:10 | 41.30573 | 28.72447 | 1309 ft | 186 kts | 359° |
| 2026-05-05 17:10 | 41.31933 | 28.72431 | 1917 ft | 197 kts | 0° |
| 2026-05-05 17:11 | 41.33302 | 28.72448 | 2643 ft | 195 kts | 1° |
| 2026-05-05 17:11 | 41.34596 | 28.72458 | 3654 ft | 175 kts | 352° |
| 2026-05-05 17:11 | 41.35708 | 28.71725 | 4222 ft | 194 kts | 318° |
| 2026-05-05 17:11 | 41.36655 | 28.70280 | 4435 ft | 220 kts | 314° |
| 2026-05-05 17:12 | 41.37702 | 28.68635 | 4735 ft | 243 kts | 314° |
| 2026-05-05 17:12 | 41.38812 | 28.66884 | 5413 ft | 250 kts | 314° |
| 2026-05-05 17:12 | 41.39931 | 28.65129 | 6182 ft | 253 kts | 314° |
| 2026-05-05 17:12 | 41.41080 | 28.63338 | 6951 ft | 256 kts | 315° |
| 2026-05-05 17:13 | 41.42248 | 28.61530 | 7694 ft | 259 kts | 315° |
| 2026-05-05 17:13 | 41.43434 | 28.59704 | 8455 ft | 261 kts | 315° |
| 2026-05-05 17:13 | 41.44637 | 28.57858 | 9195 ft | 265 kts | 315° |
| 2026-05-05 17:13 | 41.45854 | 28.55996 | 9944 ft | 268 kts | 315° |
| 2026-05-05 17:14 | 41.47096 | 28.54101 | 10448 ft | 279 kts | 315° |
| 2026-05-05 17:14 | 41.48431 | 28.52071 | 10599 ft | 302 kts | 315° |
| 2026-05-05 17:14 | 41.49867 | 28.49889 | 10772 ft | 323 kts | 314° |
| 2026-05-05 17:14 | 41.51364 | 28.47608 | 11164 ft | 335 kts | 314° |
| 2026-05-05 17:15 | 41.52928 | 28.45219 | 11798 ft | 339 kts | 314° |
| 2026-05-05 17:15 | 41.54466 | 28.42866 | 12487 ft | 342 kts | 314° |
| 2026-05-05 17:15 | 41.56042 | 28.40455 | 13185 ft | 346 kts | 314° |